sensor_id;sensor_type;location;lat;lon;timestamp;temperature;humidity
58865;DHT22;45702;52.982;6.658;2023-07-29T00:02:24;18.60;99.90
58865;DHT22;45702;52.982;6.658;2023-07-29T00:04:50;18.50;99.90
58865;DHT22;45702;52.982;6.658;2023-07-29T00:07:16;18.60;99.90
58865;DHT22;45702;52.982;6.658;2023-07-29T00:09:41;18.50;99.90
58865;DHT22;45702;52.982;6.658;2023-07-29T00:12:07;18.50;99.90
58865;DHT22;45702;52.982;6.658;2023-07-29T00:14:33;18.50;99.90
58865;DHT22;45702;52.982;6.658;2023-07-29T00:16:59;18.50;99.90
58865;DHT22;45702;52.982;6.658;2023-07-29T00:19:24;18.50;99.90
58865;DHT22;45702;52.982;6.658;2023-07-29T00:21:50;18.50;99.90
58865;DHT22;45702;52.982;6.658;2023-07-29T00:24:16;18.50;99.90
58865;DHT22;45702;52.982;6.658;2023-07-29T00:26:41;18.50;99.90
58865;DHT22;45702;52.982;6.658;2023-07-29T00:29:07;18.50;99.90
58865;DHT22;45702;52.982;6.658;2023-07-29T00:31:33;18.40;99.90
58865;DHT22;45702;52.982;6.658;2023-07-29T00:33:58;18.40;99.90
58865;DHT22;45702;52.982;6.658;2023-07-29T00:36:24;18.40;99.90
58865;DHT22;45702;52.982;6.658;2023-07-29T00:38:50;18.30;99.90
58865;DHT22;45702;52.982;6.658;2023-07-29T00:41:16;18.30;99.90
58865;DHT22;45702;52.982;6.658;2023-07-29T00:43:42;18.30;99.90
58865;DHT22;45702;52.982;6.658;2023-07-29T00:46:09;18.30;99.90
58865;DHT22;45702;52.982;6.658;2023-07-29T00:48:35;18.30;99.90
58865;DHT22;45702;52.982;6.658;2023-07-29T00:51:01;18.20;99.90
58865;DHT22;45702;52.982;6.658;2023-07-29T00:53:26;18.20;99.90
58865;DHT22;45702;52.982;6.658;2023-07-29T00:55:52;18.20;99.90
58865;DHT22;45702;52.982;6.658;2023-07-29T00:58:19;18.20;99.90
58865;DHT22;45702;52.982;6.658;2023-07-29T01:00:45;18.20;99.90
58865;DHT22;45702;52.982;6.658;2023-07-29T01:03:10;18.20;99.90
58865;DHT22;45702;52.982;6.658;2023-07-29T01:05:58;18.20;99.90
58865;DHT22;45702;52.982;6.658;2023-07-29T01:08:37;18.20;99.90
58865;DHT22;45702;52.982;6.658;2023-07-29T01:16:48;18.10;99.90
58865;DHT22;45702;52.982;6.658;2023-07-29T01:19:43;18.10;99.90
58865;DHT22;45702;52.982;6.658;2023-07-29T01:22:13;18.10;99.90
58865;DHT22;45702;52.982;6.658;2023-07-29T01:24:40;18.00;99.90
58865;DHT22;45702;52.982;6.658;2023-07-29T01:27:06;18.00;99.90
58865;DHT22;45702;52.982;6.658;2023-07-29T01:29:31;18.00;99.90
58865;DHT22;45702;52.982;6.658;2023-07-29T01:32:04;18.00;99.90
58865;DHT22;45702;52.982;6.658;2023-07-29T01:34:39;18.00;99.90
58865;DHT22;45702;52.982;6.658;2023-07-29T01:37:09;18.00;99.90
58865;DHT22;45702;52.982;6.658;2023-07-29T01:39:38;18.00;99.90
58865;DHT22;45702;52.982;6.658;2023-07-29T01:42:04;17.90;99.90
58865;DHT22;45702;52.982;6.658;2023-07-29T01:44:31;17.90;99.90
58865;DHT22;45702;52.982;6.658;2023-07-29T01:46:57;17.90;99.90
58865;DHT22;45702;52.982;6.658;2023-07-29T01:49:23;17.80;99.90
58865;DHT22;45702;52.982;6.658;2023-07-29T01:51:51;17.80;99.90
58865;DHT22;45702;52.982;6.658;2023-07-29T01:54:17;17.80;99.90
58865;DHT22;45702;52.982;6.658;2023-07-29T01:56:42;17.80;99.90
58865;DHT22;45702;52.982;6.658;2023-07-29T01:59:08;17.80;99.90
58865;DHT22;45702;52.982;6.658;2023-07-29T02:01:34;17.80;99.90
58865;DHT22;45702;52.982;6.658;2023-07-29T02:04:00;17.70;99.90
58865;DHT22;45702;52.982;6.658;2023-07-29T02:06:25;17.70;99.90
58865;DHT22;45702;52.982;6.658;2023-07-29T02:08:55;17.70;99.90
58865;DHT22;45702;52.982;6.658;2023-07-29T02:11:20;17.70;99.90
58865;DHT22;45702;52.982;6.658;2023-07-29T02:13:55;17.70;99.90
58865;DHT22;45702;52.982;6.658;2023-07-29T02:16:21;17.70;99.90
58865;DHT22;45702;52.982;6.658;2023-07-29T02:18:48;17.70;99.90
58865;DHT22;45702;52.982;6.658;2023-07-29T02:21:15;17.70;99.90
58865;DHT22;45702;52.982;6.658;2023-07-29T02:23:41;17.60;99.90
58865;DHT22;45702;52.982;6.658;2023-07-29T02:26:07;17.60;99.90
58865;DHT22;45702;52.982;6.658;2023-07-29T02:28:32;17.60;99.90
58865;DHT22;45702;52.982;6.658;2023-07-29T02:33:45;17.60;99.90
58865;DHT22;45702;52.982;6.658;2023-07-29T02:36:12;17.60;99.90
58865;DHT22;45702;52.982;6.658;2023-07-29T02:38:38;17.60;99.90
58865;DHT22;45702;52.982;6.658;2023-07-29T02:41:04;17.60;99.90
58865;DHT22;45702;52.982;6.658;2023-07-29T02:43:30;17.60;99.90
58865;DHT22;45702;52.982;6.658;2023-07-29T02:45:55;17.60;99.90
58865;DHT22;45702;52.982;6.658;2023-07-29T02:48:21;17.60;99.90
58865;DHT22;45702;52.982;6.658;2023-07-29T02:50:47;17.60;99.90
58865;DHT22;45702;52.982;6.658;2023-07-29T02:53:13;17.60;99.90
58865;DHT22;45702;52.982;6.658;2023-07-29T02:55:41;17.50;99.90
58865;DHT22;45702;52.982;6.658;2023-07-29T02:58:07;17.50;99.90
58865;DHT22;45702;52.982;6.658;2023-07-29T03:00:33;17.50;99.90
58865;DHT22;45702;52.982;6.658;2023-07-29T03:02:59;17.50;99.90
58865;DHT22;45702;52.982;6.658;2023-07-29T03:05:28;17.50;99.90
58865;DHT22;45702;52.982;6.658;2023-07-29T03:07:54;17.50;99.90
58865;DHT22;45702;52.982;6.658;2023-07-29T03:10:19;17.50;99.90
58865;DHT22;45702;52.982;6.658;2023-07-29T03:12:46;17.50;99.90
58865;DHT22;45702;52.982;6.658;2023-07-29T03:15:12;17.50;99.90
58865;DHT22;45702;52.982;6.658;2023-07-29T03:17:38;17.60;99.90
58865;DHT22;45702;52.982;6.658;2023-07-29T03:20:04;17.50;99.90
58865;DHT22;45702;52.982;6.658;2023-07-29T03:22:30;17.50;99.90
58865;DHT22;45702;52.982;6.658;2023-07-29T03:24:56;17.60;99.90
58865;DHT22;45702;52.982;6.658;2023-07-29T03:27:21;17.50;99.90
58865;DHT22;45702;52.982;6.658;2023-07-29T03:29:47;17.50;99.90
58865;DHT22;45702;52.982;6.658;2023-07-29T03:32:13;17.50;99.90
58865;DHT22;45702;52.982;6.658;2023-07-29T03:34:38;17.50;99.90
58865;DHT22;45702;52.982;6.658;2023-07-29T03:37:06;17.40;99.90
58865;DHT22;45702;52.982;6.658;2023-07-29T03:39:32;17.50;99.90
58865;DHT22;45702;52.982;6.658;2023-07-29T03:41:58;17.40;99.90
58865;DHT22;45702;52.982;6.658;2023-07-29T03:44:23;17.40;99.90
58865;DHT22;45702;52.982;6.658;2023-07-29T03:46:49;17.40;99.90
58865;DHT22;45702;52.982;6.658;2023-07-29T03:49:15;17.40;99.90
58865;DHT22;45702;52.982;6.658;2023-07-29T03:51:40;17.40;99.90
58865;DHT22;45702;52.982;6.658;2023-07-29T03:54:06;17.30;99.90
58865;DHT22;45702;52.982;6.658;2023-07-29T03:56:32;17.30;99.90
58865;DHT22;45702;52.982;6.658;2023-07-29T03:59:05;17.30;99.90
58865;DHT22;45702;52.982;6.658;2023-07-29T04:01:31;17.30;99.90
58865;DHT22;45702;52.982;6.658;2023-07-29T04:03:58;17.30;99.90
58865;DHT22;45702;52.982;6.658;2023-07-29T04:06:24;17.20;99.90
58865;DHT22;45702;52.982;6.658;2023-07-29T04:08:50;17.20;99.90
58865;DHT22;45702;52.982;6.658;2023-07-29T04:11:16;17.20;99.90
58865;DHT22;45702;52.982;6.658;2023-07-29T04:13:42;17.20;99.90
58865;DHT22;45702;52.982;6.658;2023-07-29T04:16:08;17.10;99.90
58865;DHT22;45702;52.982;6.658;2023-07-29T04:18:34;17.10;99.90
58865;DHT22;45702;52.982;6.658;2023-07-29T04:21:00;17.10;99.90
58865;DHT22;45702;52.982;6.658;2023-07-29T04:23:25;17.10;99.90
58865;DHT22;45702;52.982;6.658;2023-07-29T04:25:51;17.10;99.90
58865;DHT22;45702;52.982;6.658;2023-07-29T04:28:17;17.00;99.90
58865;DHT22;45702;52.982;6.658;2023-07-29T04:30:43;17.00;99.90
58865;DHT22;45702;52.982;6.658;2023-07-29T04:33:08;17.00;99.90
58865;DHT22;45702;52.982;6.658;2023-07-29T04:35:34;17.00;99.90
58865;DHT22;45702;52.982;6.658;2023-07-29T04:38:00;17.00;99.90
58865;DHT22;45702;52.982;6.658;2023-07-29T04:40:25;17.00;99.90
58865;DHT22;45702;52.982;6.658;2023-07-29T04:42:51;17.00;99.90
58865;DHT22;45702;52.982;6.658;2023-07-29T04:45:17;17.00;99.90
58865;DHT22;45702;52.982;6.658;2023-07-29T04:47:43;17.00;99.90
58865;DHT22;45702;52.982;6.658;2023-07-29T04:50:09;17.10;99.90
58865;DHT22;45702;52.982;6.658;2023-07-29T04:52:34;17.10;99.90
58865;DHT22;45702;52.982;6.658;2023-07-29T04:55:00;17.00;99.90
58865;DHT22;45702;52.982;6.658;2023-07-29T04:57:26;17.00;99.90
58865;DHT22;45702;52.982;6.658;2023-07-29T04:59:52;17.10;99.90
58865;DHT22;45702;52.982;6.658;2023-07-29T05:02:17;17.10;99.90
58865;DHT22;45702;52.982;6.658;2023-07-29T05:04:43;17.10;99.90
58865;DHT22;45702;52.982;6.658;2023-07-29T05:07:09;17.10;99.90
58865;DHT22;45702;52.982;6.658;2023-07-29T05:09:34;17.10;99.90
58865;DHT22;45702;52.982;6.658;2023-07-29T05:12:00;17.10;99.90
58865;DHT22;45702;52.982;6.658;2023-07-29T05:14:26;17.20;99.90
58865;DHT22;45702;52.982;6.658;2023-07-29T05:16:51;17.20;99.90
58865;DHT22;45702;52.982;6.658;2023-07-29T05:19:17;17.20;99.90
58865;DHT22;45702;52.982;6.658;2023-07-29T05:21:43;17.20;99.90
58865;DHT22;45702;52.982;6.658;2023-07-29T05:24:09;17.20;99.90
58865;DHT22;45702;52.982;6.658;2023-07-29T05:26:34;17.20;99.90
58865;DHT22;45702;52.982;6.658;2023-07-29T05:29:00;17.20;99.90
58865;DHT22;45702;52.982;6.658;2023-07-29T05:31:26;17.20;99.90
58865;DHT22;45702;52.982;6.658;2023-07-29T05:33:52;17.20;99.90
58865;DHT22;45702;52.982;6.658;2023-07-29T05:36:17;17.30;99.90
58865;DHT22;45702;52.982;6.658;2023-07-29T05:38:43;17.30;99.90
58865;DHT22;45702;52.982;6.658;2023-07-29T05:41:09;17.30;99.90
58865;DHT22;45702;52.982;6.658;2023-07-29T05:43:34;17.30;99.90
58865;DHT22;45702;52.982;6.658;2023-07-29T05:46:00;17.30;99.90
58865;DHT22;45702;52.982;6.658;2023-07-29T05:48:26;17.30;99.90
58865;DHT22;45702;52.982;6.658;2023-07-29T05:50:52;17.30;99.90
58865;DHT22;45702;52.982;6.658;2023-07-29T05:53:18;17.30;99.90
58865;DHT22;45702;52.982;6.658;2023-07-29T05:55:44;17.40;99.90
58865;DHT22;45702;52.982;6.658;2023-07-29T05:58:09;17.40;99.90
58865;DHT22;45702;52.982;6.658;2023-07-29T06:00:35;17.40;99.90
58865;DHT22;45702;52.982;6.658;2023-07-29T06:03:01;17.40;99.90
58865;DHT22;45702;52.982;6.658;2023-07-29T06:05:27;17.40;99.90
58865;DHT22;45702;52.982;6.658;2023-07-29T06:07:52;17.40;99.90
58865;DHT22;45702;52.982;6.658;2023-07-29T06:10:18;17.50;99.90
58865;DHT22;45702;52.982;6.658;2023-07-29T06:12:45;17.50;99.90
58865;DHT22;45702;52.982;6.658;2023-07-29T06:15:11;17.50;99.90
58865;DHT22;45702;52.982;6.658;2023-07-29T06:17:38;17.50;99.90
58865;DHT22;45702;52.982;6.658;2023-07-29T06:20:04;17.60;99.90
58865;DHT22;45702;52.982;6.658;2023-07-29T06:22:31;17.60;99.90
58865;DHT22;45702;52.982;6.658;2023-07-29T06:24:57;17.60;99.90
58865;DHT22;45702;52.982;6.658;2023-07-29T06:27:23;17.60;99.90
58865;DHT22;45702;52.982;6.658;2023-07-29T06:29:50;17.70;99.90
58865;DHT22;45702;52.982;6.658;2023-07-29T06:32:16;17.70;99.90
58865;DHT22;45702;52.982;6.658;2023-07-29T06:34:42;17.70;99.90
58865;DHT22;45702;52.982;6.658;2023-07-29T06:37:07;17.80;99.90
58865;DHT22;45702;52.982;6.658;2023-07-29T06:39:33;17.90;99.90
58865;DHT22;45702;52.982;6.658;2023-07-29T06:41:59;18.00;99.90
58865;DHT22;45702;52.982;6.658;2023-07-29T06:44:24;18.00;99.90
58865;DHT22;45702;52.982;6.658;2023-07-29T06:46:50;18.10;99.90
58865;DHT22;45702;52.982;6.658;2023-07-29T06:49:16;18.20;99.90
58865;DHT22;45702;52.982;6.658;2023-07-29T06:51:41;18.20;99.90
58865;DHT22;45702;52.982;6.658;2023-07-29T06:54:07;18.30;99.90
58865;DHT22;45702;52.982;6.658;2023-07-29T06:56:33;18.30;99.90
58865;DHT22;45702;52.982;6.658;2023-07-29T06:58:59;18.30;99.90
58865;DHT22;45702;52.982;6.658;2023-07-29T07:01:24;18.40;99.90
58865;DHT22;45702;52.982;6.658;2023-07-29T07:03:50;18.40;99.90
58865;DHT22;45702;52.982;6.658;2023-07-29T07:06:20;18.50;99.90
58865;DHT22;45702;52.982;6.658;2023-07-29T07:08:46;18.50;99.90
58865;DHT22;45702;52.982;6.658;2023-07-29T07:11:12;18.50;99.90
58865;DHT22;45702;52.982;6.658;2023-07-29T07:13:38;18.60;99.90
58865;DHT22;45702;52.982;6.658;2023-07-29T07:16:03;18.60;99.90
58865;DHT22;45702;52.982;6.658;2023-07-29T07:18:29;18.60;99.90
58865;DHT22;45702;52.982;6.658;2023-07-29T07:20:55;18.60;99.90
58865;DHT22;45702;52.982;6.658;2023-07-29T07:23:21;18.60;99.90
58865;DHT22;45702;52.982;6.658;2023-07-29T07:25:46;18.70;99.90
58865;DHT22;45702;52.982;6.658;2023-07-29T07:28:12;18.70;99.90
58865;DHT22;45702;52.982;6.658;2023-07-29T07:30:41;18.80;99.90
58865;DHT22;45702;52.982;6.658;2023-07-29T07:33:07;18.80;99.90
58865;DHT22;45702;52.982;6.658;2023-07-29T07:35:33;18.90;99.90
58865;DHT22;45702;52.982;6.658;2023-07-29T07:37:58;19.00;99.90
58865;DHT22;45702;52.982;6.658;2023-07-29T07:40:27;19.00;99.90
58865;DHT22;45702;52.982;6.658;2023-07-29T07:42:52;19.00;99.90
58865;DHT22;45702;52.982;6.658;2023-07-29T07:45:19;19.00;99.90
58865;DHT22;45702;52.982;6.658;2023-07-29T07:47:45;19.10;99.90
58865;DHT22;45702;52.982;6.658;2023-07-29T07:50:10;19.20;99.90
58865;DHT22;45702;52.982;6.658;2023-07-29T07:52:36;19.20;99.90
58865;DHT22;45702;52.982;6.658;2023-07-29T07:55:02;19.30;99.90
58865;DHT22;45702;52.982;6.658;2023-07-29T07:57:28;19.40;99.90
58865;DHT22;45702;52.982;6.658;2023-07-29T07:59:53;19.40;99.90
58865;DHT22;45702;52.982;6.658;2023-07-29T08:02:19;19.40;99.90
58865;DHT22;45702;52.982;6.658;2023-07-29T08:04:45;19.50;99.90
58865;DHT22;45702;52.982;6.658;2023-07-29T08:07:11;19.50;99.90
58865;DHT22;45702;52.982;6.658;2023-07-29T08:09:39;19.50;99.90
58865;DHT22;45702;52.982;6.658;2023-07-29T08:12:05;19.50;99.90
58865;DHT22;45702;52.982;6.658;2023-07-29T08:14:30;19.60;99.90
58865;DHT22;45702;52.982;6.658;2023-07-29T08:16:56;19.70;99.90
58865;DHT22;45702;52.982;6.658;2023-07-29T08:19:22;19.60;99.90
58865;DHT22;45702;52.982;6.658;2023-07-29T08:21:47;19.70;99.90
58865;DHT22;45702;52.982;6.658;2023-07-29T08:24:13;19.70;99.90
58865;DHT22;45702;52.982;6.658;2023-07-29T08:26:39;19.70;99.90
58865;DHT22;45702;52.982;6.658;2023-07-29T08:29:05;19.70;99.90
58865;DHT22;45702;52.982;6.658;2023-07-29T08:31:31;19.80;99.90
58865;DHT22;45702;52.982;6.658;2023-07-29T08:33:59;19.80;99.90
58865;DHT22;45702;52.982;6.658;2023-07-29T08:36:26;19.90;99.90
58865;DHT22;45702;52.982;6.658;2023-07-29T08:38:51;19.90;99.90
58865;DHT22;45702;52.982;6.658;2023-07-29T08:41:32;20.00;99.90
58865;DHT22;45702;52.982;6.658;2023-07-29T08:44:11;20.10;99.90
58865;DHT22;45702;52.982;6.658;2023-07-29T08:46:39;20.20;99.90
58865;DHT22;45702;52.982;6.658;2023-07-29T08:49:05;20.20;99.90
58865;DHT22;45702;52.982;6.658;2023-07-29T08:51:31;20.30;99.90
58865;DHT22;45702;52.982;6.658;2023-07-29T08:53:59;20.30;99.90
58865;DHT22;45702;52.982;6.658;2023-07-29T08:56:25;20.30;99.90
58865;DHT22;45702;52.982;6.658;2023-07-29T08:58:52;20.30;99.90
58865;DHT22;45702;52.982;6.658;2023-07-29T09:01:18;20.30;99.90
58865;DHT22;45702;52.982;6.658;2023-07-29T09:03:43;20.20;99.90
58865;DHT22;45702;52.982;6.658;2023-07-29T09:06:09;20.20;99.90
58865;DHT22;45702;52.982;6.658;2023-07-29T09:08:35;20.20;99.90
58865;DHT22;45702;52.982;6.658;2023-07-29T09:11:01;20.20;99.90
58865;DHT22;45702;52.982;6.658;2023-07-29T09:13:27;20.20;99.90
58865;DHT22;45702;52.982;6.658;2023-07-29T09:15:55;20.30;99.90
58865;DHT22;45702;52.982;6.658;2023-07-29T09:18:21;20.50;99.90
58865;DHT22;45702;52.982;6.658;2023-07-29T09:20:48;20.60;99.90
58865;DHT22;45702;52.982;6.658;2023-07-29T09:23:15;20.80;99.90
58865;DHT22;45702;52.982;6.658;2023-07-29T09:25:41;21.00;99.90
58865;DHT22;45702;52.982;6.658;2023-07-29T09:28:12;21.20;99.90
58865;DHT22;45702;52.982;6.658;2023-07-29T09:30:44;21.30;99.90
58865;DHT22;45702;52.982;6.658;2023-07-29T09:33:12;21.40;99.90
58865;DHT22;45702;52.982;6.658;2023-07-29T09:35:38;21.40;99.90
58865;DHT22;45702;52.982;6.658;2023-07-29T09:38:05;21.30;99.90
58865;DHT22;45702;52.982;6.658;2023-07-29T09:40:36;21.40;99.90
58865;DHT22;45702;52.982;6.658;2023-07-29T09:43:06;21.30;99.90
58865;DHT22;45702;52.982;6.658;2023-07-29T09:45:36;21.40;99.90
58865;DHT22;45702;52.982;6.658;2023-07-29T09:48:04;21.60;99.90
58865;DHT22;45702;52.982;6.658;2023-07-29T09:50:35;21.70;99.90
58865;DHT22;45702;52.982;6.658;2023-07-29T09:53:08;21.90;99.90
58865;DHT22;45702;52.982;6.658;2023-07-29T09:55:34;22.10;99.90
58865;DHT22;45702;52.982;6.658;2023-07-29T09:58:01;22.20;99.90
58865;DHT22;45702;52.982;6.658;2023-07-29T10:00:30;22.30;99.90
58865;DHT22;45702;52.982;6.658;2023-07-29T10:03:24;22.30;99.90
58865;DHT22;45702;52.982;6.658;2023-07-29T10:06:34;22.30;99.90
58865;DHT22;45702;52.982;6.658;2023-07-29T10:09:00;22.20;99.90
58865;DHT22;45702;52.982;6.658;2023-07-29T10:11:27;22.30;99.90
58865;DHT22;45702;52.982;6.658;2023-07-29T10:13:53;22.50;99.90
58865;DHT22;45702;52.982;6.658;2023-07-29T10:16:19;22.50;99.90
58865;DHT22;45702;52.982;6.658;2023-07-29T10:18:46;22.50;99.90
58865;DHT22;45702;52.982;6.658;2023-07-29T10:21:12;22.60;99.90
58865;DHT22;45702;52.982;6.658;2023-07-29T10:23:43;22.60;99.90
58865;DHT22;45702;52.982;6.658;2023-07-29T10:26:11;22.70;99.90
58865;DHT22;45702;52.982;6.658;2023-07-29T10:28:40;22.60;99.90
58865;DHT22;45702;52.982;6.658;2023-07-29T10:31:07;22.70;99.90
58865;DHT22;45702;52.982;6.658;2023-07-29T10:33:34;22.80;99.90
58865;DHT22;45702;52.982;6.658;2023-07-29T10:36:00;22.90;99.90
58865;DHT22;45702;52.982;6.658;2023-07-29T10:38:26;23.10;99.90
58865;DHT22;45702;52.982;6.658;2023-07-29T10:40:56;23.00;99.90
58865;DHT22;45702;52.982;6.658;2023-07-29T10:43:35;22.90;99.90
58865;DHT22;45702;52.982;6.658;2023-07-29T10:46:21;22.90;99.90
58865;DHT22;45702;52.982;6.658;2023-07-29T10:51:36;22.60;99.90
58865;DHT22;45702;52.982;6.658;2023-07-29T10:54:12;22.40;99.90
58865;DHT22;45702;52.982;6.658;2023-07-29T10:56:48;22.20;99.90
58865;DHT22;45702;52.982;6.658;2023-07-29T11:01:51;21.80;99.90
58865;DHT22;45702;52.982;6.658;2023-07-29T11:15:20;20.80;99.90
58865;DHT22;45702;52.982;6.658;2023-07-29T11:20:17;20.40;99.90
58865;DHT22;45702;52.982;6.658;2023-07-29T11:22:43;20.30;99.90
58865;DHT22;45702;52.982;6.658;2023-07-29T11:25:11;20.10;99.90
58865;DHT22;45702;52.982;6.658;2023-07-29T11:27:38;20.00;99.90
58865;DHT22;45702;52.982;6.658;2023-07-29T11:30:06;19.90;99.90
58865;DHT22;45702;52.982;6.658;2023-07-29T11:32:34;20.00;99.90
58865;DHT22;45702;52.982;6.658;2023-07-29T11:35:26;20.00;99.90
58865;DHT22;45702;52.982;6.658;2023-07-29T11:37:54;20.10;99.90
58865;DHT22;45702;52.982;6.658;2023-07-29T11:40:22;20.20;99.90
58865;DHT22;45702;52.982;6.658;2023-07-29T11:42:50;20.40;99.90
58865;DHT22;45702;52.982;6.658;2023-07-29T11:45:17;20.60;99.90
58865;DHT22;45702;52.982;6.658;2023-07-29T11:47:49;20.80;99.90
58865;DHT22;45702;52.982;6.658;2023-07-29T11:50:15;20.90;99.90
58865;DHT22;45702;52.982;6.658;2023-07-29T11:52:43;20.90;99.90
58865;DHT22;45702;52.982;6.658;2023-07-29T11:55:09;21.00;99.90
58865;DHT22;45702;52.982;6.658;2023-07-29T11:57:38;21.00;99.90
58865;DHT22;45702;52.982;6.658;2023-07-29T12:00:05;21.10;99.90
58865;DHT22;45702;52.982;6.658;2023-07-29T12:02:32;21.00;99.90
58865;DHT22;45702;52.982;6.658;2023-07-29T12:05:00;21.00;99.90
58865;DHT22;45702;52.982;6.658;2023-07-29T12:07:26;21.10;99.90
58865;DHT22;45702;52.982;6.658;2023-07-29T12:09:52;21.20;99.90
58865;DHT22;45702;52.982;6.658;2023-07-29T12:12:18;21.20;99.90
58865;DHT22;45702;52.982;6.658;2023-07-29T12:14:45;21.40;99.90
58865;DHT22;45702;52.982;6.658;2023-07-29T12:17:14;21.50;99.90
58865;DHT22;45702;52.982;6.658;2023-07-29T12:19:40;21.60;99.90
58865;DHT22;45702;52.982;6.658;2023-07-29T12:22:09;21.80;99.90
58865;DHT22;45702;52.982;6.658;2023-07-29T12:24:36;22.00;99.90
58865;DHT22;45702;52.982;6.658;2023-07-29T12:27:02;22.10;99.90
58865;DHT22;45702;52.982;6.658;2023-07-29T12:29:28;22.10;99.90
58865;DHT22;45702;52.982;6.658;2023-07-29T12:32:01;22.30;99.90
58865;DHT22;45702;52.982;6.658;2023-07-29T12:34:28;22.30;99.90
58865;DHT22;45702;52.982;6.658;2023-07-29T12:36:55;22.30;99.90
58865;DHT22;45702;52.982;6.658;2023-07-29T12:39:24;22.30;99.90
58865;DHT22;45702;52.982;6.658;2023-07-29T12:41:51;22.40;99.90
58865;DHT22;45702;52.982;6.658;2023-07-29T12:44:17;22.30;99.90
58865;DHT22;45702;52.982;6.658;2023-07-29T12:46:43;22.20;99.90
58865;DHT22;45702;52.982;6.658;2023-07-29T12:49:09;22.20;99.90
58865;DHT22;45702;52.982;6.658;2023-07-29T12:51:35;22.30;99.90
58865;DHT22;45702;52.982;6.658;2023-07-29T12:54:02;22.30;99.90
58865;DHT22;45702;52.982;6.658;2023-07-29T12:56:28;22.50;99.90
58865;DHT22;45702;52.982;6.658;2023-07-29T12:58:59;22.50;99.90
58865;DHT22;45702;52.982;6.658;2023-07-29T13:01:26;22.40;99.90
58865;DHT22;45702;52.982;6.658;2023-07-29T13:03:51;22.40;99.90
58865;DHT22;45702;52.982;6.658;2023-07-29T13:06:17;22.50;99.90
58865;DHT22;45702;52.982;6.658;2023-07-29T13:08:45;22.50;99.90
58865;DHT22;45702;52.982;6.658;2023-07-29T13:11:11;22.60;99.90
58865;DHT22;45702;52.982;6.658;2023-07-29T13:13:37;22.60;99.90
58865;DHT22;45702;52.982;6.658;2023-07-29T13:16:03;22.60;98.80
58865;DHT22;45702;52.982;6.658;2023-07-29T13:18:29;22.50;98.60
58865;DHT22;45702;52.982;6.658;2023-07-29T13:20:54;22.40;98.10
58865;DHT22;45702;52.982;6.658;2023-07-29T13:23:21;22.40;99.70
58865;DHT22;45702;52.982;6.658;2023-07-29T13:25:47;22.50;99.50
58865;DHT22;45702;52.982;6.658;2023-07-29T13:28:13;22.70;96.40
58865;DHT22;45702;52.982;6.658;2023-07-29T13:30:39;22.80;95.40
58865;DHT22;45702;52.982;6.658;2023-07-29T13:33:06;22.90;95.80
58865;DHT22;45702;52.982;6.658;2023-07-29T13:35:32;23.00;94.80
58865;DHT22;45702;52.982;6.658;2023-07-29T13:37:58;23.00;94.50
58865;DHT22;45702;52.982;6.658;2023-07-29T13:40:24;22.90;94.00
58865;DHT22;45702;52.982;6.658;2023-07-29T13:42:50;23.00;94.20
58865;DHT22;45702;52.982;6.658;2023-07-29T13:45:15;23.00;94.80
58865;DHT22;45702;52.982;6.658;2023-07-29T13:47:41;23.20;95.30
58865;DHT22;45702;52.982;6.658;2023-07-29T13:50:07;23.60;91.70
58865;DHT22;45702;52.982;6.658;2023-07-29T13:52:33;23.70;91.20
58865;DHT22;45702;52.982;6.658;2023-07-29T13:54:59;23.70;91.20
58865;DHT22;45702;52.982;6.658;2023-07-29T13:57:25;23.80;90.50
58865;DHT22;45702;52.982;6.658;2023-07-29T13:59:51;23.80;89.50
58865;DHT22;45702;52.982;6.658;2023-07-29T14:02:16;23.90;85.30
58865;DHT22;45702;52.982;6.658;2023-07-29T14:04:42;23.80;86.30
58865;DHT22;45702;52.982;6.658;2023-07-29T14:07:08;23.70;85.90
58865;DHT22;45702;52.982;6.658;2023-07-29T14:09:34;23.50;86.50
58865;DHT22;45702;52.982;6.658;2023-07-29T14:11:59;23.40;88.50
58865;DHT22;45702;52.982;6.658;2023-07-29T14:14:25;23.40;87.60
58865;DHT22;45702;52.982;6.658;2023-07-29T14:16:51;23.40;89.50
58865;DHT22;45702;52.982;6.658;2023-07-29T14:19:16;23.50;88.10
58865;DHT22;45702;52.982;6.658;2023-07-29T14:21:42;23.50;89.60
58865;DHT22;45702;52.982;6.658;2023-07-29T14:24:08;23.50;90.10
58865;DHT22;45702;52.982;6.658;2023-07-29T14:26:34;23.50;89.50
58865;DHT22;45702;52.982;6.658;2023-07-29T14:28:59;23.50;88.50
58865;DHT22;45702;52.982;6.658;2023-07-29T14:31:25;23.40;90.20
58865;DHT22;45702;52.982;6.658;2023-07-29T14:33:51;23.30;90.10
58865;DHT22;45702;52.982;6.658;2023-07-29T14:36:16;23.20;90.70
58865;DHT22;45702;52.982;6.658;2023-07-29T14:38:42;23.10;91.50
58865;DHT22;45702;52.982;6.658;2023-07-29T14:41:08;23.00;92.30
58865;DHT22;45702;52.982;6.658;2023-07-29T14:43:35;22.80;92.60
58865;DHT22;45702;52.982;6.658;2023-07-29T14:46:01;22.70;92.60
58865;DHT22;45702;52.982;6.658;2023-07-29T14:48:27;22.60;93.10
58865;DHT22;45702;52.982;6.658;2023-07-29T14:50:53;22.50;94.10
58865;DHT22;45702;52.982;6.658;2023-07-29T14:53:18;22.50;94.70
58865;DHT22;45702;52.982;6.658;2023-07-29T14:55:44;22.30;95.30
58865;DHT22;45702;52.982;6.658;2023-07-29T14:58:10;22.30;96.00
58865;DHT22;45702;52.982;6.658;2023-07-29T15:00:36;22.30;96.20
58865;DHT22;45702;52.982;6.658;2023-07-29T15:03:02;22.30;96.50
58865;DHT22;45702;52.982;6.658;2023-07-29T15:05:28;22.30;97.10
58865;DHT22;45702;52.982;6.658;2023-07-29T15:07:54;22.40;97.20
58865;DHT22;45702;52.982;6.658;2023-07-29T15:10:20;22.50;96.70
58865;DHT22;45702;52.982;6.658;2023-07-29T15:12:47;22.60;96.00
58865;DHT22;45702;52.982;6.658;2023-07-29T15:15:13;22.70;96.00
58865;DHT22;45702;52.982;6.658;2023-07-29T15:17:38;22.70;96.20
58865;DHT22;45702;52.982;6.658;2023-07-29T15:20:05;22.70;95.90
58865;DHT22;45702;52.982;6.658;2023-07-29T15:22:31;22.70;96.10
58865;DHT22;45702;52.982;6.658;2023-07-29T15:25:00;22.70;95.10
58865;DHT22;45702;52.982;6.658;2023-07-29T15:27:29;22.90;96.20
58865;DHT22;45702;52.982;6.658;2023-07-29T15:29:55;23.10;95.30
58865;DHT22;45702;52.982;6.658;2023-07-29T15:32:22;23.20;94.70
58865;DHT22;45702;52.982;6.658;2023-07-29T15:34:49;23.10;94.80
58865;DHT22;45702;52.982;6.658;2023-07-29T15:37:15;23.20;95.30
58865;DHT22;45702;52.982;6.658;2023-07-29T15:39:41;23.40;94.60
58865;DHT22;45702;52.982;6.658;2023-07-29T15:42:07;23.40;93.70
58865;DHT22;45702;52.982;6.658;2023-07-29T15:44:33;23.70;94.50
58865;DHT22;45702;52.982;6.658;2023-07-29T15:46:59;24.30;93.20
58865;DHT22;45702;52.982;6.658;2023-07-29T15:49:24;24.80;90.20
58865;DHT22;45702;52.982;6.658;2023-07-29T15:51:50;25.10;87.50
58865;DHT22;45702;52.982;6.658;2023-07-29T15:54:17;25.40;85.20
58865;DHT22;45702;52.982;6.658;2023-07-29T15:56:43;25.50;84.10